Time;durP1;ratioP1;P1;durP2;ratioP2;P2;SDS_P1;SDS_P2;PMS_P1;PMS_P2;Temp;Humidity;BMP_temperature;BMP_pressure;BME280_temperature;BME280_humidity;BME280_pressure;Samples;Min_cycle;Max_cycle;Signal;HPM_P1;HPM_P2
2022/01/09 00:01:10;;;;;;;;;;;;;;;-6.25;79.64;99706.44;5013293;28;19921;-79
2022/01/09 00:03:35;;;;;;;;;;;;;;;-6.22;80.20;99712.56;5013549;28;19913;-78
2022/01/09 00:06:00;;;;;;;;;;;;;;;-6.23;80.05;99702.34;5014810;28;19928;-78
2022/01/09 00:08:26;;;;;;;;;;;;;;;-6.24;79.98;99698.94;5014740;28;19913;-78
2022/01/09 00:10:52;;;;;;;;;;;;;;;-6.21;79.72;99691.56;5013265;28;19917;-78
2022/01/09 00:13:17;;;;;;;;;;;;;;;-6.10;79.60;99683.78;5013402;28;20009;-78
2022/01/09 00:15:43;;;;;;;;;;;;;;;-6.17;79.05;99691.00;5014832;28;19917;-79
2022/01/09 00:18:08;;;;;;;;;;;;;;;-6.15;79.34;99689.41;5013095;28;19913;-79
2022/01/09 00:20:34;;;;;;;;;;;;;;;-6.15;78.84;99689.41;5012996;28;19924;-79
2022/01/09 00:22:59;;;;;;;;;;;;;;;-6.20;78.28;99690.78;4997139;28;19921;-79
2022/01/09 00:25:25;;;;;;;;;;;;;;;-6.20;78.88;99680.69;5013206;28;20012;-79
2022/01/09 00:27:51;;;;;;;;;;;;;;;-6.21;78.56;99668.84;5014252;28;20008;-79
2022/01/09 00:30:17;;;;;;;;;;;;;;;-6.20;78.60;99665.53;5014534;28;20369;-78
2022/01/09 00:32:42;;;;;;;;;;;;;;;-6.19;78.75;99666.41;5014064;28;19913;-80
2022/01/09 00:35:08;;;;;;;;;;;;;;;-6.16;78.50;99672.53;5012560;28;19917;-79
2022/01/09 00:37:34;;;;;;;;;;;;;;;-6.18;78.61;99669.06;5013072;28;19921;-78
2022/01/09 00:39:59;;;;;;;;;;;;;;;-6.16;78.07;99662.44;5012994;28;19917;-79
2022/01/09 00:42:25;;;;;;;;;;;;;;;-6.18;78.29;99663.13;5012725;28;19922;-80
2022/01/09 00:44:50;;;;;;;;;;;;;;;-6.17;77.99;99650.59;5013873;28;19925;-79
2022/01/09 00:47:16;;;;;;;;;;;;;;;-6.17;78.36;99650.59;4996124;28;20315;-79
2022/01/09 00:49:41;;;;;;;;;;;;;;;-6.16;77.46;99648.94;5013986;28;19940;-80
2022/01/09 00:52:07;;;;;;;;;;;;;;;-6.15;77.85;99645.63;4996186;28;19913;-79
2022/01/09 00:54:32;;;;;;;;;;;;;;;-6.12;78.12;99647.47;5013604;28;20060;-79
2022/01/09 00:56:58;;;;;;;;;;;;;;;-6.09;77.80;99650.16;5012826;28;19913;-79
2022/01/09 00:59:23;;;;;;;;;;;;;;;-6.12;77.24;99644.94;5012605;28;20399;-77
2022/01/09 01:01:48;;;;;;;;;;;;;;;-6.12;77.13;99639.91;5013714;28;20385;-78
2022/01/09 01:04:14;;;;;;;;;;;;;;;-6.11;77.70;99639.97;5013630;28;19917;-78
2022/01/09 01:06:39;;;;;;;;;;;;;;;-6.10;76.93;99629.09;5012254;28;19949;-77
2022/01/09 01:09:05;;;;;;;;;;;;;;;-6.10;77.37;99626.56;5013286;28;20339;-79
2022/01/09 01:11:30;;;;;;;;;;;;;;;-6.06;77.14;99617.53;5012287;28;20015;-78
2022/01/09 01:13:56;;;;;;;;;;;;;;;-6.10;76.61;99620.66;5012148;28;19917;-79
2022/01/09 01:16:22;;;;;;;;;;;;;;;-6.10;76.56;99624.03;5013349;28;19960;-79
2022/01/09 01:18:47;;;;;;;;;;;;;;;-6.14;76.51;99619.59;5013060;28;19918;-78
2022/01/09 01:21:13;;;;;;;;;;;;;;;-6.13;76.16;99618.84;5012031;28;20023;-78
2022/01/09 01:23:39;;;;;;;;;;;;;;;-6.17;76.25;99614.38;5011660;28;19983;-77
2022/01/09 01:26:04;;;;;;;;;;;;;;;-6.15;76.55;99613.66;5012089;28;19913;-77
2022/01/09 01:28:30;;;;;;;;;;;;;;;-6.12;76.52;99619.69;5011723;28;20407;-78
2022/01/09 01:30:55;;;;;;;;;;;;;;;-6.13;75.29;99612.91;4995551;28;19920;-77
2022/01/09 01:33:21;;;;;;;;;;;;;;;-6.14;75.12;99614.53;5011828;28;20428;-77
2022/01/09 01:35:46;;;;;;;;;;;;;;;-6.14;74.79;99606.97;5013003;28;19966;-78
2022/01/09 01:38:12;;;;;;;;;;;;;;;-6.09;74.71;99603.09;5013006;28;19920;-78
2022/01/09 01:40:37;;;;;;;;;;;;;;;-6.08;74.76;99603.97;5012888;28;19921;-77
2022/01/09 01:43:03;;;;;;;;;;;;;;;-6.07;74.08;99608.22;5012024;28;20364;-79
2022/01/09 01:45:28;;;;;;;;;;;;;;;-6.06;74.03;99598.22;4995412;28;19940;-77
2022/01/09 01:47:54;;;;;;;;;;;;;;;-6.06;73.83;99597.34;5011731;28;19924;-77
2022/01/09 01:50:20;;;;;;;;;;;;;;;-6.08;74.03;99593.84;5012839;28;19920;-77
2022/01/09 01:52:48;;;;;;;;;;;;;;;-6.07;74.10;99593.94;5013006;28;19917;-78
2022/01/09 01:55:14;;;;;;;;;;;;;;;-6.04;73.39;99585.69;5011997;28;19917;-78
2022/01/09 01:57:40;;;;;;;;;;;;;;;-6.05;73.52;99581.41;5011674;28;19940;-78
2022/01/09 02:00:06;;;;;;;;;;;;;;;-6.06;73.36;99577.13;5012895;28;19963;-77
2022/01/09 02:02:31;;;;;;;;;;;;;;;-6.07;72.80;99581.31;5012924;28;20443;-77
2022/01/09 02:04:57;;;;;;;;;;;;;;;-6.06;72.47;99572.09;5011894;28;20016;-77
2022/01/09 02:07:22;;;;;;;;;;;;;;;-6.05;73.07;99573.81;5011619;28;19917;-77
2022/01/09 02:09:48;;;;;;;;;;;;;;;-6.08;72.19;99566.09;5013061;28;19913;-77
2022/01/09 02:12:13;;;;;;;;;;;;;;;-6.09;72.60;99571.88;5011852;28;20376;-77
2022/01/09 02:14:43;;;;;;;;;;;;;;;-6.08;72.09;99571.13;5012960;28;19959;-78
2022/01/09 02:17:08;;;;;;;;;;;;;;;-6.16;72.52;99566.47;5012842;28;20347;-77
2022/01/09 02:19:34;;;;;;;;;;;;;;;-6.18;72.51;99557.97;5011336;28;19913;-78
2022/01/09 02:21:59;;;;;;;;;;;;;;;-6.20;72.88;99563.69;5011411;28;19944;-77
2022/01/09 02:24:25;;;;;;;;;;;;;;;-6.20;72.25;99559.50;4995215;28;19917;-78
2022/01/09 02:26:51;;;;;;;;;;;;;;;-6.24;72.17;99562.63;5011348;28;20284;-78
2022/01/09 02:29:16;;;;;;;;;;;;;;;-6.23;73.10;99554.28;5011460;28;19920;-78
2022/01/09 02:31:42;;;;;;;;;;;;;;;-6.23;72.77;99566.91;5012363;28;20426;-78
2022/01/09 02:34:08;;;;;;;;;;;;;;;-6.22;72.59;99563.59;5011309;28;20044;-78
2022/01/09 02:36:34;;;;;;;;;;;;;;;-6.23;72.06;99564.38;5011276;28;20465;-78
2022/01/09 02:38:59;;;;;;;;;;;;;;;-6.24;71.77;99561.75;5012379;28;19917;-78
2022/01/09 02:41:25;;;;;;;;;;;;;;;-6.29;71.87;99569.03;5012317;28;20372;-78
2022/01/09 02:43:50;;;;;;;;;;;;;;;-6.28;72.19;99569.91;5012320;28;20660;-78
2022/01/09 02:49:05;;;;;;;;;;;;;;;-6.30;72.84;99567.31;4974707;28;20392;-78
2022/01/09 02:51:31;;;;;;;;;;;;;;;-6.30;72.84;99572.34;4994756;28;19917;-78
2022/01/09 02:54:12;;;;;;;;;;;;;;;-6.31;71.96;99569.75;5012306;28;20307;-78
2022/01/09 02:56:38;;;;;;;;;;;;;;;-6.27;72.08;99569.16;5013060;28;20376;-78
2022/01/09 02:59:03;;;;;;;;;;;;;;;-6.25;72.86;99570.09;5015834;28;19920;-77
2022/01/09 03:01:29;;;;;;;;;;;;;;;-6.32;72.40;99563.84;5015876;28;19968;-78
2022/01/09 03:03:54;;;;;;;;;;;;;;;-6.24;72.87;99560.09;5014596;28;19913;-78
2022/01/09 03:06:20;;;;;;;;;;;;;;;-6.27;72.26;99559.94;4998140;28;19917;-78
2022/01/09 03:08:45;;;;;;;;;;;;;;;-6.23;73.16;99561.88;5015767;28;19986;-78
2022/01/09 03:11:11;;;;;;;;;;;;;;;-6.22;73.15;99565.25;5015783;28;20372;-78
2022/01/09 03:13:36;;;;;;;;;;;;;;;-6.11;72.58;99559.19;5015845;28;19920;-77
2022/01/09 03:16:02;;;;;;;;;;;;;;;-6.13;72.59;99554.84;5015691;28;20308;-77
2022/01/09 03:18:28;;;;;;;;;;;;;;;-6.12;72.07;99564.16;5015366;28;19952;-77
2022/01/09 03:20:53;;;;;;;;;;;;;;;-6.08;72.77;99559.38;5013900;28;19922;-78
2022/01/09 03:23:19;;;;;;;;;;;;;;;-6.08;72.49;99558.50;5014297;28;19914;-77
2022/01/09 03:25:44;;;;;;;;;;;;;;;-6.07;72.53;99552.66;5014249;28;20376;-77
2022/01/09 03:28:10;;;;;;;;;;;;;;;-6.10;71.76;99557.53;4997752;28;20011;-77
2022/01/09 03:30:35;;;;;;;;;;;;;;;-6.17;72.12;99544.53;5015145;28;19919;-78
2022/01/09 03:33:00;;;;;;;;;;;;;;;-6.16;71.94;99551.34;4997591;28;19917;-78
2022/01/09 03:35:26;;;;;;;;;;;;;;;-6.14;71.84;99543.84;5015128;28;20319;-78
2022/01/09 03:37:52;;;;;;;;;;;;;;;-6.13;71.52;99534.63;5014044;28;19913;-76
2022/01/09 03:40:18;;;;;;;;;;;;;;;-6.16;72.34;99546.28;5013628;28;19917;-78
2022/01/09 03:42:44;;;;;;;;;;;;;;;-6.17;71.85;99536.97;4997562;28;19921;-77
2022/01/09 03:45:10;;;;;;;;;;;;;;;-6.15;71.60;99537.91;5013833;28;19928;-77
2022/01/09 03:47:35;;;;;;;;;;;;;;;-6.15;71.58;99539.56;5015152;28;20044;-78
2022/01/09 03:50:02;;;;;;;;;;;;;;;-6.13;71.86;99534.63;5014009;28;19927;-78
2022/01/09 03:52:28;;;;;;;;;;;;;;;-6.14;72.21;99526.16;5013853;28;19924;-78
2022/01/09 03:54:54;;;;;;;;;;;;;;;-6.16;72.29;99528.59;5014877;28;20011;-77
2022/01/09 03:57:19;;;;;;;;;;;;;;;-6.12;72.34;99526.28;4997473;28;19949;-79
2022/01/09 03:59:45;;;;;;;;;;;;;;;-6.08;72.41;99533.25;5013179;28;20415;-78
2022/01/09 04:02:10;;;;;;;;;;;;;;;-6.13;72.24;99534.63;4997290;28;20384;-78
2022/01/09 04:04:36;;;;;;;;;;;;;;;-6.14;72.41;99531.22;5014740;28;19917;-78
2022/01/09 04:07:01;;;;;;;;;;;;;;;-6.13;72.29;99527.94;5013394;28;19913;-78
2022/01/09 04:09:37;;;;;;;;;;;;;;;-6.14;72.00;99536.25;5012309;28;20011;-77
2022/01/09 04:12:03;;;;;;;;;;;;;;;-6.11;72.37;99533.06;5014263;28;19968;-78
2022/01/09 04:14:29;;;;;;;;;;;;;;;-6.10;72.51;99530.63;4997235;28;19913;-79
2022/01/09 04:16:55;;;;;;;;;;;;;;;-6.11;72.20;99528.00;5014717;28;20000;-78
2022/01/09 04:19:20;;;;;;;;;;;;;;;-6.14;72.40;99533.75;5014556;28;20376;-78
2022/01/09 04:21:46;;;;;;;;;;;;;;;-6.16;71.53;99538.72;5014661;28;19921;-79
2022/01/09 04:24:11;;;;;;;;;;;;;;;-6.14;71.46;99533.75;4996943;28;19913;-79
2022/01/09 04:26:37;;;;;;;;;;;;;;;-6.05;72.13;99533.41;4997114;28;19917;-79
2022/01/09 04:29:03;;;;;;;;;;;;;;;-6.09;72.15;99537.44;4996959;28;20035;-79
2022/01/09 04:31:30;;;;;;;;;;;;;;;-6.15;71.42;99524.44;4997193;28;19972;-79
2022/01/09 04:33:55;;;;;;;;;;;;;;;-6.13;71.37;99527.94;4996793;28;19980;-77
2022/01/09 04:36:21;;;;;;;;;;;;;;;-6.16;71.34;99523.56;5014272;28;19921;-78
2022/01/09 04:38:46;;;;;;;;;;;;;;;-6.17;71.68;99524.34;5013240;28;19920;-81
2022/01/09 04:41:12;;;;;;;;;;;;;;;-6.20;71.56;99526.69;5013143;28;19925;-78
2022/01/09 04:43:37;;;;;;;;;;;;;;;-6.19;70.92;99523.38;5013056;28;19944;-78
2022/01/09 04:46:03;;;;;;;;;;;;;;;-6.20;71.85;99524.16;5014376;28;19917;-79
2022/01/09 04:48:28;;;;;;;;;;;;;;;-6.23;71.26;99523.09;4996491;28;19959;-78
2022/01/09 04:50:55;;;;;;;;;;;;;;;-6.17;71.33;99520.97;5012884;28;20302;-79
2022/01/09 04:53:21;;;;;;;;;;;;;;;-6.17;71.36;99519.31;5014035;28;20009;-79
2022/01/09 04:55:49;;;;;;;;;;;;;;;-6.19;70.65;99519.97;5013234;28;19960;-79
2022/01/09 04:58:15;;;;;;;;;;;;;;;-6.16;71.69;99516.00;5014145;28;19914;-80
2022/01/09 05:00:41;;;;;;;;;;;;;;;-6.18;71.47;99515.03;5012499;28;20474;-80
2022/01/09 05:03:06;;;;;;;;;;;;;;;-6.10;70.87;99519.66;4996841;28;20269;-79
2022/01/09 05:05:32;;;;;;;;;;;;;;;-6.13;70.41;99524.53;5014052;28;19924;-79
2022/01/09 05:07:58;;;;;;;;;;;;;;;-6.14;71.07;99523.63;5012578;28;19915;-78
2022/01/09 05:10:23;;;;;;;;;;;;;;;-6.13;70.45;99517.84;4996127;28;19924;-78
2022/01/09 05:12:49;;;;;;;;;;;;;;;-6.08;71.40;99523.16;5013580;28;19913;-78
2022/01/09 05:15:16;;;;;;;;;;;;;;;-6.09;70.49;99528.97;5013467;28;19963;-77
2022/01/09 05:17:42;;;;;;;;;;;;;;;-6.15;70.30;99527.81;5013328;28;19918;-77
2022/01/09 05:20:08;;;;;;;;;;;;;;;-6.15;70.60;99535.41;5011974;28;19967;-78
2022/01/09 05:22:34;;;;;;;;;;;;;;;-6.17;70.87;99529.41;5012162;28;19921;-78
2022/01/09 05:25:01;;;;;;;;;;;;;;;-6.23;70.62;99529.03;5013424;28;19924;-78
2022/01/09 05:27:27;;;;;;;;;;;;;;;-6.26;71.40;99530.50;5013441;28;20353;-78
2022/01/09 05:29:52;;;;;;;;;;;;;;;-6.24;70.52;99527.28;5011937;28;19949;-78
2022/01/09 05:32:19;;;;;;;;;;;;;;;-6.22;71.58;99528.25;5012082;28;19913;-78
2022/01/09 05:34:44;;;;;;;;;;;;;;;-6.24;70.73;99532.31;5013338;28;20050;-79
2022/01/09 05:37:10;;;;;;;;;;;;;;;-6.27;71.15;99531.28;5013245;28;19953;-79
2022/01/09 05:39:35;;;;;;;;;;;;;;;-6.24;71.09;99526.41;5012310;28;19923;-78
2022/01/09 05:42:02;;;;;;;;;;;;;;;-6.26;70.82;99526.31;5011726;28;19967;-79
2022/01/09 05:44:27;;;;;;;;;;;;;;;-6.19;71.17;99525.03;5012251;28;19925;-78
2022/01/09 05:46:53;;;;;;;;;;;;;;;-6.19;71.21;99530.06;5013196;28;20339;-78
2022/01/09 05:49:18;;;;;;;;;;;;;;;-6.24;71.24;99531.47;4995419;28;20371;-79
2022/01/09 05:51:44;;;;;;;;;;;;;;;-6.25;71.28;99530.59;5013066;28;20459;-78
2022/01/09 05:54:09;;;;;;;;;;;;;;;-6.28;71.61;99534.56;4995520;28;19936;-78
2022/01/09 05:56:35;;;;;;;;;;;;;;;-6.27;70.83;99527.13;5011711;28;20011;-78
2022/01/09 05:59:00;;;;;;;;;;;;;;;-6.23;71.18;99529.03;5011890;28;19922;-78
2022/01/09 06:01:26;;;;;;;;;;;;;;;-6.22;71.17;99534.97;5013097;28;19924;-78
2022/01/09 06:03:51;;;;;;;;;;;;;;;-6.21;71.10;99527.47;5011661;28;20070;-78
2022/01/09 06:06:17;;;;;;;;;;;;;;;-6.18;71.93;99527.66;5012894;28;19913;-79
2022/01/09 06:08:42;;;;;;;;;;;;;;;-6.15;71.21;99529.47;4995333;28;19918;-79
2022/01/09 06:11:07;;;;;;;;;;;;;;;-6.15;71.33;99532.88;5011446;28;19918;-78
2022/01/09 06:13:33;;;;;;;;;;;;;;;-6.13;71.64;99524.53;5011735;28;19921;-78
2022/01/09 06:15:58;;;;;;;;;;;;;;;-6.08;71.01;99530.72;5012908;28;19918;-79
2022/01/09 06:18:24;;;;;;;;;;;;;;;-6.06;70.83;99519.91;4995369;28;19913;-78
2022/01/09 06:20:50;;;;;;;;;;;;;;;-6.03;70.75;99522.63;5011571;28;19918;-79
2022/01/09 06:23:19;;;;;;;;;;;;;;;-5.98;71.02;99517.84;5011781;28;19917;-78
2022/01/09 06:25:45;;;;;;;;;;;;;;;-5.96;70.99;99518.81;5012814;28;19967;-77
2022/01/09 06:28:10;;;;;;;;;;;;;;;-5.95;70.53;99520.56;5011562;28;20566;-77
2022/01/09 06:30:36;;;;;;;;;;;;;;;-5.91;71.18;99518.28;5011801;28;19917;-77
2022/01/09 06:33:01;;;;;;;;;;;;;;;-5.90;71.13;99519.16;5012927;28;20296;-78
2022/01/09 06:35:27;;;;;;;;;;;;;;;-5.83;70.99;99513.66;5014089;28;19921;-78
2022/01/09 06:37:52;;;;;;;;;;;;;;;-5.81;70.38;99513.78;5014051;28;19928;-77
2022/01/09 06:40:18;;;;;;;;;;;;;;;-5.78;70.67;99511.41;5015254;28;19920;-77
2022/01/09 06:42:44;;;;;;;;;;;;;;;-5.74;70.53;99510.78;5014075;28;19921;-78
2022/01/09 06:45:09;;;;;;;;;;;;;;;-5.72;70.29;99507.59;5013880;28;19927;-78
2022/01/09 06:47:35;;;;;;;;;;;;;;;-5.70;70.15;99506.00;4997382;28;19917;-77
2022/01/09 06:50:00;;;;;;;;;;;;;;;-5.68;69.54;99506.97;4997732;28;19952;-80
2022/01/09 06:52:26;;;;;;;;;;;;;;;-5.60;70.10;99504.88;5015067;28;19917;-78
2022/01/09 06:54:51;;;;;;;;;;;;;;;-5.54;70.32;99510.28;5014981;28;19919;-78
2022/01/09 06:57:17;;;;;;;;;;;;;;;-5.56;69.44;99500.88;5015227;28;20358;-78
2022/01/09 06:59:43;;;;;;;;;;;;;;;-5.52;69.49;99510.38;5014416;28;19914;-77
2022/01/09 07:02:08;;;;;;;;;;;;;;;-5.48;68.99;99507.25;5014736;28;19968;-78
2022/01/09 07:04:33;;;;;;;;;;;;;;;-5.47;68.94;99506.44;5014744;28;20475;-78
2022/01/09 07:06:59;;;;;;;;;;;;;;;-5.42;68.57;99500.00;4996677;28;20258;-78
2022/01/09 07:09:25;;;;;;;;;;;;;;;-5.44;68.36;99501.56;5014394;28;19913;-77
2022/01/09 07:11:50;;;;;;;;;;;;;;;-5.41;67.93;99492.47;5012862;28;20019;-78
2022/01/09 07:14:16;;;;;;;;;;;;;;;-5.37;68.21;99491.00;5012855;28;19914;-78
2022/01/09 07:16:41;;;;;;;;;;;;;;;-5.37;67.98;99486.81;5013860;28;20408;-78
2022/01/09 07:19:07;;;;;;;;;;;;;;;-5.42;67.50;99490.75;5014467;28;19921;-76
2022/01/09 07:21:33;;;;;;;;;;;;;;;-5.35;67.66;99491.09;4997292;28;19929;-78
2022/01/09 07:23:58;;;;;;;;;;;;;;;-5.33;67.78;99485.34;5014947;28;19917;-78
2022/01/09 07:26:23;;;;;;;;;;;;;;;-5.31;66.85;99493.91;5014584;28;19940;-78
2022/01/09 07:28:49;;;;;;;;;;;;;;;-5.28;67.04;99491.50;5012110;28;19917;-79
2022/01/09 07:31:14;;;;;;;;;;;;;;;-5.22;67.11;99491.88;5013662;28;20423;-78
2022/01/09 07:33:40;;;;;;;;;;;;;;;-5.26;66.84;99482.38;5014821;28;20083;-77
2022/01/09 07:36:05;;;;;;;;;;;;;;;-5.30;66.68;99477.94;4997194;28;20406;-78
2022/01/09 07:38:31;;;;;;;;;;;;;;;-5.26;66.88;99471.41;5015462;28;19972;-77
2022/01/09 07:40:57;;;;;;;;;;;;;;;-5.17;66.79;99465.19;5012513;28;19921;-78
2022/01/09 07:43:22;;;;;;;;;;;;;;;-5.20;66.35;99470.06;5013102;28;19917;-78
2022/01/09 07:45:48;;;;;;;;;;;;;;;-5.19;66.30;99464.19;5013089;28;19944;-77
2022/01/09 07:48:13;;;;;;;;;;;;;;;-5.24;66.30;99470.66;5013847;28;19913;-77
2022/01/09 07:50:39;;;;;;;;;;;;;;;-5.29;66.30;99461.97;5013353;28;19968;-79
2022/01/09 07:53:05;;;;;;;;;;;;;;;-5.21;66.49;99455.69;4996343;28;20003;-78
2022/01/09 07:55:30;;;;;;;;;;;;;;;-5.11;66.63;99447.78;5012922;28;19917;-79
2022/01/09 07:57:56;;;;;;;;;;;;;;;-5.16;66.20;99456.81;5012622;28;20004;-77
2022/01/09 08:00:21;;;;;;;;;;;;;;;-5.19;65.49;99459.16;4996735;28;19920;-77
2022/01/09 08:02:47;;;;;;;;;;;;;;;-5.14;65.44;99451.81;5012627;28;19921;-78
2022/01/09 08:05:13;;;;;;;;;;;;;;;-5.18;65.35;99455.84;5013778;28;19975;-79
2022/01/09 08:07:38;;;;;;;;;;;;;;;-5.13;65.23;99439.28;4996437;28;20380;-78
2022/01/09 08:10:04;;;;;;;;;;;;;;;-5.01;65.24;99438.19;5013722;28;20071;-78
2022/01/09 08:12:30;;;;;;;;;;;;;;;-4.95;64.26;99433.44;5012433;28;19913;-77
2022/01/09 08:14:55;;;;;;;;;;;;;;;-4.93;63.77;99442.88;4996101;28;20224;-77
2022/01/09 08:17:21;;;;;;;;;;;;;;;-4.90;63.80;99435.44;5012470;28;19921;-78
2022/01/09 08:19:46;;;;;;;;;;;;;;;-4.86;63.27;99438.97;4996165;28;19920;-78
2022/01/09 08:22:12;;;;;;;;;;;;;;;-4.81;63.32;99430.00;5012041;28;20015;-78
2022/01/09 08:24:39;;;;;;;;;;;;;;;-4.75;62.39;99427.78;5012392;28;20356;-77
2022/01/09 08:27:04;;;;;;;;;;;;;;;-4.65;62.92;99416.47;5013387;28;19917;-79
2022/01/09 08:29:30;;;;;;;;;;;;;;;-4.61;62.69;99425.97;5012310;28;19918;-77
2022/01/09 08:31:55;;;;;;;;;;;;;;;-4.64;61.90;99426.66;4996384;28;19913;-77
2022/01/09 08:34:21;;;;;;;;;;;;;;;-4.58;62.83;99422.72;5013527;28;19928;-79
2022/01/09 08:36:46;;;;;;;;;;;;;;;-4.57;62.54;99419.41;5013371;28;19920;-78
2022/01/09 08:39:11;;;;;;;;;;;;;;;-4.58;61.98;99425.25;5013141;28;20373;-78
2022/01/09 08:41:37;;;;;;;;;;;;;;;-4.66;62.00;99417.28;4995427;28;19922;-77
2022/01/09 08:44:04;;;;;;;;;;;;;;;-4.66;62.62;99415.63;4995966;28;19925;-78
2022/01/09 08:46:30;;;;;;;;;;;;;;;-4.56;62.94;99413.56;5012911;28;19913;-80
2022/01/09 08:48:55;;;;;;;;;;;;;;;-4.54;62.12;99407.75;4995508;28;19917;-77
2022/01/09 08:51:21;;;;;;;;;;;;;;;-4.47;62.05;99406.44;5011595;28;19918;-78
2022/01/09 08:53:50;;;;;;;;;;;;;;;-4.51;61.25;99392.75;5012674;28;19924;-78
2022/01/09 08:56:16;;;;;;;;;;;;;;;-4.59;60.43;99401.59;5012200;28;19924;-76
2022/01/09 08:58:42;;;;;;;;;;;;;;;-4.63;61.10;99403.13;5012322;28;19913;-78
2022/01/09 09:01:07;;;;;;;;;;;;;;;-4.49;61.07;99398.78;5011392;28;20384;-79
2022/01/09 09:03:35;;;;;;;;;;;;;;;-4.49;60.48;99398.78;5011646;28;19913;-78
2022/01/09 09:06:01;;;;;;;;;;;;;;;-4.43;61.57;99398.19;5011575;28;20357;-78
2022/01/09 09:08:27;;;;;;;;;;;;;;;-4.41;61.02;99399.13;5011364;28;19952;-77
2022/01/09 09:10:52;;;;;;;;;;;;;;;-4.35;62.21;99387.69;5012759;28;19948;-83
2022/01/09 09:13:18;;;;;;;;;;;;;;;-4.35;60.94;99390.22;5011362;28;20008;-77
2022/01/09 09:15:43;;;;;;;;;;;;;;;-4.35;61.12;99384.28;4995052;28;20376;-78
2022/01/09 09:18:09;;;;;;;;;;;;;;;-4.31;60.92;99385.28;5012767;28;19920;-78
2022/01/09 09:20:34;;;;;;;;;;;;;;;-4.24;60.74;99374.66;5012632;28;19921;-78
2022/01/09 09:23:00;;;;;;;;;;;;;;;-4.08;61.61;99379.69;4994850;28;20128;-78
2022/01/09 09:25:26;;;;;;;;;;;;;;;-4.05;60.86;99376.44;5012061;28;19999;-78
2022/01/09 09:27:51;;;;;;;;;;;;;;;-4.02;60.86;99371.53;4994683;28;19959;-78
2022/01/09 09:30:17;;;;;;;;;;;;;;;-3.96;60.72;99366.75;5027003;28;19917;-78
2022/01/09 09:32:42;;;;;;;;;;;;;;;-3.92;60.71;99368.66;5011305;28;19980;-78
2022/01/09 09:35:08;;;;;;;;;;;;;;;-3.99;58.97;99364.06;5010662;28;20328;-77
2022/01/09 09:37:33;;;;;;;;;;;;;;;-3.93;59.88;99366.91;5010980;28;19913;-78
2022/01/09 09:39:59;;;;;;;;;;;;;;;-3.98;59.03;99364.16;5012404;28;20387;-79
2022/01/09 09:42:24;;;;;;;;;;;;;;;-3.93;59.65;99365.25;4994524;28;19921;-78
2022/01/09 09:44:50;;;;;;;;;;;;;;;-3.86;59.57;99356.25;5012203;28;19926;-78
2022/01/09 09:47:17;;;;;;;;;;;;;;;-3.85;59.41;99347.84;4994496;28;19959;-77
2022/01/09 09:49:42;;;;;;;;;;;;;;;-3.83;59.93;99353.88;5010707;28;19917;-77
2022/01/09 09:52:08;;;;;;;;;;;;;;;-3.81;59.24;99357.34;5011468;28;19924;-77
2022/01/09 09:54:33;;;;;;;;;;;;;;;-3.80;59.69;99354.03;4994316;28;19917;-78
2022/01/09 09:56:58;;;;;;;;;;;;;;;-3.74;60.16;99354.31;4994595;28;19924;-78
2022/01/09 09:59:25;;;;;;;;;;;;;;;-3.81;59.11;99348.88;5011721;28;19955;-78
2022/01/09 10:01:50;;;;;;;;;;;;;;;-3.79;59.74;99343.09;4994437;28;19922;-78
2022/01/09 10:04:16;;;;;;;;;;;;;;;-3.78;59.59;99339.75;4994266;28;19924;-78
2022/01/09 10:06:45;;;;;;;;;;;;;;;-3.81;58.54;99339.59;4995541;28;20380;-77
2022/01/09 10:09:14;;;;;;;;;;;;;;;-3.75;58.83;99334.84;4998530;28;19944;-78
2022/01/09 10:11:47;;;;;;;;;;;;;;;-3.76;58.14;99339.81;4998505;28;20003;-78
2022/01/09 10:14:20;;;;;;;;;;;;;;;-3.73;59.05;99337.44;5016139;28;20067;-78
2022/01/09 10:17:04;;;;;;;;;;;;;;;-3.64;59.42;99336.22;5015834;28;19917;-77
2022/01/09 10:19:39;;;;;;;;;;;;;;;-3.73;57.56;99335.78;4999137;28;19924;-77
2022/01/09 10:22:05;;;;;;;;;;;;;;;-3.76;57.68;99334.75;4982203;28;19922;-79
2022/01/09 10:24:31;;;;;;;;;;;;;;;-3.87;57.30;99329.19;4998388;28;20281;-77
2022/01/09 10:26:57;;;;;;;;;;;;;;;-3.87;59.56;99326.66;5016248;28;20411;-77
2022/01/09 10:29:22;;;;;;;;;;;;;;;-3.77;58.31;99328.81;5015616;28;19917;-77
2022/01/09 10:31:50;;;;;;;;;;;;;;;-3.72;58.38;99329.03;4966023;28;19917;-78
2022/01/09 10:34:16;;;;;;;;;;;;;;;-3.86;57.12;99321.66;4998723;28;19917;-78
2022/01/09 10:36:43;;;;;;;;;;;;;;;-3.96;57.43;99319.47;5015944;28;19966;-78
2022/01/09 10:39:16;;;;;;;;;;;;;;;-3.88;57.64;99319.84;5015808;28;19944;-78
2022/01/09 11:58:03;;;;;;;11.63;6.30;;;;;;;-4.83;72.88;99241.81;5038647;27;20143;-78
2022/01/09 12:00:44;;;;;;;13.68;6.78;;;;;;;-4.76;73.29;99245.53;5050112;28;20036;-79
2022/01/09 12:03:34;;;;;;;57.08;31.83;;;;;;;-4.68;74.20;99245.09;5050307;28;20053;-79
2022/01/09 12:06:10;;;;;;;18.25;9.57;;;;;;;-4.68;74.18;99242.56;5050491;28;20503;-79
2022/01/09 12:08:57;;;;;;;23.65;10.63;;;;;;;-4.70;74.57;99244.16;5048740;28;20463;-79
2022/01/09 12:12:00;;;;;;;12.80;6.65;;;;;;;-4.71;74.76;99236.50;5049155;28;20439;-77
2022/01/09 12:14:41;;;;;;;15.05;7.72;;;;;;;-4.68;75.18;99234.97;5050230;28;20103;-78
2022/01/09 12:17:31;;;;;;;43.17;21.20;;;;;;;-4.64;75.31;99219.13;5048755;28;20037;-78
2022/01/09 12:20:09;;;;;;;12.57;6.68;;;;;;;-4.59;75.97;99216.81;5041940;28;20053;-78
2022/01/09 12:22:48;;;;;;;10.80;6.13;;;;;;;-4.63;75.04;99205.72;5049463;28;20143;-77
2022/01/09 12:25:32;;;;;;;12.35;6.32;;;;;;;-4.67;75.93;99206.34;5048776;28;20053;-79
2022/01/09 12:28:10;;;;;;;12.45;5.90;;;;;;;-4.74;76.03;99200.91;5050038;28;20056;-79
2022/01/09 12:30:38;;;;;;;9.82;5.97;;;;;;;-4.70;76.54;99200.28;5049542;28;20099;-78
2022/01/09 12:33:09;;;;;;;13.63;6.30;;;;;;;-4.76;75.60;99197.44;5049954;28;20048;-83
2022/01/09 12:35:36;;;;;;;10.05;6.07;;;;;;;-4.73;75.99;99192.50;5048456;28;20052;-78
2022/01/09 12:38:02;;;;;;;13.82;6.93;;;;;;;-4.74;76.29;99183.19;5048682;28;20080;-78
2022/01/09 12:40:32;;;;;;;9.63;6.20;;;;;;;-4.80;75.73;99186.31;5049468;28;20064;-78
2022/01/09 12:42:58;;;;;;;12.05;7.10;;;;;;;-4.86;76.03;99185.97;5032003;28;20060;-78
2022/01/09 12:45:28;;;;;;;11.77;5.35;;;;;;;-4.89;75.92;99180.78;5031560;28;20480;-78
2022/01/09 12:47:54;;;;;;;12.77;6.82;;;;;;;-4.89;76.25;99173.22;5046353;28;20052;-80
2022/01/09 12:50:28;;;;;;;13.18;6.70;;;;;;;-4.87;76.39;99166.53;5028072;28;20033;-78
2022/01/09 12:53:22;;;;;;;10.85;6.45;;;;;;;-4.97;75.88;99164.38;5029439;28;20091;-79
2022/01/09 12:55:59;;;;;;;10.63;6.70;;;;;;;-4.94;76.19;99162.00;5011268;28;20081;-78
2022/01/09 12:58:34;;;;;;;10.20;6.03;;;;;;;-4.96;75.88;99168.63;5012083;28;20037;-78
2022/01/09 13:01:33;;;;;;;10.70;6.20;;;;;;;-4.94;76.19;99156.94;5011634;28;20523;-79
2022/01/09 13:04:10;;;;;;;11.20;6.35;;;;;;;-5.06;75.61;99149.59;5028141;28;20390;-79
2022/01/09 13:06:37;;;;;;;11.82;6.32;;;;;;;-5.04;76.91;99140.44;5029171;28;20453;-78
2022/01/09 13:09:05;;;;;;;12.38;6.80;;;;;;;-4.98;77.17;99134.81;5017083;28;20045;-78
2022/01/09 13:11:31;;;;;;;14.07;6.82;;;;;;;-4.96;77.03;99133.22;5014977;28;20033;-78
2022/01/09 13:13:57;;;;;;;;;;;;;;;-5.02;76.81;99132.94;5014241;28;20192;-78
2022/01/09 13:16:29;;;;;;;13.07;5.95;;;;;;;-5.04;77.05;99137.91;5015929;28;20407;-78
2022/01/09 13:19:00;;;;;;;12.23;6.47;;;;;;;-4.99;77.43;99133.09;5014411;28;20049;-80
2022/01/09 13:21:26;;;;;;;11.60;6.60;;;;;;;-4.95;77.27;99124.81;5015511;28;20396;-78
2022/01/09 13:23:55;;;;;;;17.08;8.35;;;;;;;-4.97;77.32;99121.38;5014117;28;20038;-79
2022/01/09 13:26:21;;;;;;;11.52;6.07;;;;;;;-4.90;77.56;99126.81;5013917;28;20060;-78
2022/01/09 13:28:47;;;;;;;;;;;;;;;-4.92;77.12;99130.91;4998194;28;20061;-77
2022/01/09 13:31:13;;;;;;;17.42;8.07;;;;;;;-4.96;76.63;99118.03;5014451;28;19924;-77
2022/01/09 13:33:52;;;;;;;12.93;7.05;;;;;;;-5.01;76.44;99122.88;4981648;28;20405;-77
2022/01/09 13:36:45;;;;;;;13.27;7.30;;;;;;;-5.02;76.77;99122.81;5009212;28;20034;-77
2022/01/09 13:39:27;;;;;;;15.52;8.20;;;;;;;-5.06;76.65;99125.97;5013923;28;20052;-78
2022/01/09 13:41:56;;;;;;;13.98;8.15;;;;;;;-5.15;76.88;99118.81;5014057;28;20099;-76
2022/01/09 13:44:23;;;;;;;13.90;7.50;;;;;;;-5.21;76.52;99121.03;5014453;28;20033;-78
2022/01/09 13:47:04;;;;;;;14.13;7.32;;;;;;;-5.15;76.66;99137.38;5013125;28;20041;-75
2022/01/09 13:49:31;;;;;;;13.80;6.97;;;;;;;-5.12;76.80;99129.09;5013175;28;20041;-79
2022/01/09 13:51:57;;;;;;;12.13;7.57;;;;;;;-5.09;77.00;99135.94;5011689;28;20480;-78